Tiempo atmosférico en la estación meteorológica de Cáceres, Cáceres (405 m.)



Fecha
DESCASC
Temp. máxima en grados centígrados (hora)
DESCASC
Temp. mínima en grados centígrados (hora)
DESCASC
Temp. media en grados centígrados
DESCASC
Racha de viento máxima en m/sg (hora)
DESCASC
Velocidad máxima media en intervalos de 10 minutos(hora)
DESCASC
Precipitaciones diarias en mm
DESCASC
Precipitaciones de 00:00 a 06:00 en mm
DESCASC
Precipitaciones de 06:00 a 12:00 en mm
DESCASC
Precipitaciones de 12:00 a 18:00 en mm
DESCASC
Precipitaciones de 18:00 a 24:00 en mm
DESCASC
18-01-2018 14.2 (16:30) 2.9 (06:40) 8.5 4.44 (16:00) 2.5 (15:50) 0 0 0 0 0
17-01-2018 15.5 (16:40) 5.9 (23:50) 10.7 7.5 (10:50) 5 (10:50) 0 0 0 0 0
16-01-2018 14.6 (15:00) 4.4 (08:30) 9.5 7.78 (20:40) 5.83 (20:40) 0 0 0 0 0
15-01-2018 11.6 (16:40) -0.2 (09:10) 5.7 7.22 (23:00) 5 (23:59) 0 0 0 0 0
14-01-2018 9 (17:10) 2 (00:00) 5.5 8.06 (16:10) 5.56 (04:50) 0 0 0 0 0
13-01-2018 7.7 (16:40) 2.8 (00:00) 5.2 12.22 (12:50) 8.33 (10:30) 7.8 0 6.4 0 1.4
12-01-2018 10 (15:50) 0.3 (00:00) 5.2 5.28 (01:30) 3.89 (21:20) 0 0 0 0 0
11-01-2018 11.7 (15:10) 5.8 (00:00) 8.8 12.22 (04:10) 8.33 (03:40) 0 0 0 0 0
10-01-2018 11.1 (14:20) 5.7 (00:00) 8.4 13.61 (14:50) 6.67 (15:10) 2.4 0.2 0 2.2 0
09-01-2018 7.5 (20:40) 1.5 (00:00) 4.5 9.72 (11:20) 6.39 (11:20) 6 0 0 2.6 3.4
08-01-2018 9.7 (16:10) 2.2 (00:00) 5.9 6.67 (03:30) 3.89 (04:40) 2.2 2.2 0 0 0
07-01-2018 7.3 (16:40) 3.1 (00:00) 5.2 9.44 (14:20) 6.11 (14:50) 2.8 0 0 0 2.8
06-01-2018 8.9 (15:30) 4.5 (00:00) 6.7 12.5 (14:30) 7.78 (14:30) 0 0 0 0 0
05-01-2018 12.3 (00:50) 7.1 (00:00) 9.7 15.28 (09:00) 8.61 (08:40) 15.8 0 0.2 10.2 5.4
04-01-2018 14.9 (15:10) 10.7 (08:10) 12.8 9.17 (22:30) 6.11 (10:40) 0 0 0 0 0
03-01-2018 15.5 (17:00) 11.3 (00:00) 13.4 8.89 (00:40) 6.11 (00:40) 0 0 0 0 0
02-01-2018 14 (14:00) 8 (00:00) 11 9.72 (06:10) 6.67 (07:00) 0 0 0 0 0
01-01-2018 13.3 (16:20) 4 (00:00) 8.7 10.83 (23:30) 6.11 (16:20) 0 0 0 0 0
31-12-2017 13.3 (14:00) 8.7 (00:00) 11 14.17 (14:10) 6.39 (16:10) 2.6 0 0 2.6 0
30-12-2017 16.7 (15:40) 10.2 (00:00) 13.5 7.22 (00:40) 5.28 (00:20) 0 0 0 0 0
29-12-2017 16.9 (13:00) 12.3 (00:00) 14.6 11.39 (05:10) 6.94 (17:00) 0 0 0 0 0
28-12-2017 16.2 (14:10) 8.3 (00:00) 12.3 15 (14:40) 7.78 (14:30) 1.2 1.2 0 0 0
27-12-2017 12.5 (16:00) 8.3 (00:00) 10.4 16.11 (01:50) 9.72 (01:10) 1.8 1.6 0 0 0.2
26-12-2017 10.3 (00:00) 5.8 (00:00) 8.1 16.11 (23:59) 7.5 (22:50) 2 0 0 0 2
25-12-2017 11.9 (16:30) 3.5 (00:00) 7.7 10.83 (23:00) 5.56 (22:40) 0.6 0 0.2 0 0.4
24-12-2017 14.2 (16:10) 3 (00:00) 8.6 5 (03:10) 3.33 (03:10) 0 0 0 0 0
23-12-2017 14.4 (15:40) 2.1 (00:00) 8.2 5.28 (17:10) 3.33 (17:20) 0 0 0 0 0
22-12-2017 15.9 (16:40) 1.9 (00:00) 8.9 4.44 (20:40) 3.33 (19:50) 0 0 0 0 0
21-12-2017 14.5 (16:50) 2.6 (00:00) 8.5 3.06 (16:10) 2.22 (17:40) 0 0 0 0 0

Gráficas

Temp. máximas Temp. mínimas Temp. medias Precipitaciones Rachas de viento máximas Velocidades máximas media en intervalos de 10 minutos

Datos horarios

Fecha y hora oficial Temperatura (ºC) Velocidad del viento (km/h) Dirección del viento Racha (km/h) Dirección de racha Precipitación (mm) Presión (hPa) Tendencia (hPa) Humedad (%)
2018-01-19 23:00:00 9 7 Oeste 17 Oeste 0 979.8 1.8 73
2018-01-19 22:00:00 10.5 10 Oeste 19 Oeste 0 979.2 2.2 67
2018-01-19 21:00:00 11.4 12 Noroeste 20 Noroeste 0 978.7 2.3 65
2018-01-19 20:00:00 11.9 10 Noroeste 16 Noroeste 0 978 2.1 61
2018-01-19 19:00:00 13.2 9 Oeste 17 Noroeste 0 977 1.6 56
2018-01-19 18:00:00 15 9 Noroeste 24 Noroeste 0 976.4 1 52
2018-01-19 17:00:00 16.6 13 Noroeste 26 Norte 0 975.9 -0.2 50
2018-01-19 16:00:00 16.8 12 Noroeste 21 Noroeste 0 975.4 -0.9 48
2018-01-19 15:00:00 15.5 8 Noroeste 15 Noroeste 0 975.4 -1.3 52
2018-01-19 14:00:00 14.1 9 Noroeste 15 Oeste 0 976.1 -0.5 54
2018-01-19 13:00:00 13.2 6 Noroeste 10 Noroeste 0 976.3 1 56
2018-01-19 12:00:00 10.4 3 Noroeste 13 Noroeste 0 976.7 1.8 64
2018-01-19 11:00:00 8 3 Oeste 10 Noroeste 0 976.6 1.9 74
2018-01-19 10:00:00 6 0 Calma 6 Sur 0 975.3 1.3 85
2018-01-19 09:00:00 4.1 2 Sudeste 7 Sudoeste 0 974.9 1.3 87
2018-01-19 08:00:00 3.3 3 Oeste 6 Oeste 0 974.7 1.3 89
2018-01-19 07:00:00 4 2 Oeste 7 Sur 0 974 0.3 83
2018-01-19 06:00:00 4.7 4 Sudoeste 7 Sudoeste 0 973.6 -0.1 84
2018-01-19 05:00:00 5.7 5 Sudoeste 7 Oeste 0 973.4 -0.6 80
2018-01-19 04:00:00 6.6 5 Oeste 9 Oeste 0 973.7 -0.9 74
2018-01-19 03:00:00 6.7 6 Sudoeste 9 Oeste 0 973.7 -1.2 74
2018-01-19 02:00:00 6.6 4 Sudoeste 7 Sudoeste 0 974 -0.9 75
2018-01-19 01:00:00 6.3 4 Oeste 5 Oeste 0 974.6 -0.4 78
2018-01-19 00:00:00 6.9 2 Sudoeste 5 Oeste 0 974.9 0 77
2018-01-18 23:00:00 7.8 3 Sudoeste 5 Sur 0 974.9 -0.1 74
2018-01-18 22:00:00 7.9 5 Sudoeste 6 Sudoeste 0 975 0.1 75
2018-01-18 21:00:00 7.8 2 Sur 6 Sudoeste 0 974.9 0.2 76
2018-01-18 20:00:00 7.8 5 Sudoeste 7 Sur 0 975 0 76
2018-01-18 19:00:00 9.2 3 Sudeste 10 Nordeste 0 974.9 -0.5 72
2018-01-18 18:00:00 12.8 8 Nordeste 14 Norte 0 974.7 -1.3 58
2018-01-18 17:00:00 14.1 8 Norte 16 Nordeste 0 975 -1.9 52
2018-01-18 16:00:00 13.9 9 Norte 16 Norte 0 975.4 -2.6 53
2018-01-18 15:00:00 13 7 Norte 15 Norte 0 976 -2.6 56
2018-01-18 14:00:00 11.6 5 Norte 10 Norte 0 976.9 -1.7 62
2018-01-18 13:00:00 9.6 3 Norte 8 Norte 0 978 -0.3 75
2018-01-18 12:00:00 8.1 3 Nordeste 7 Norte 0 978.6 1.1 80
2018-01-18 11:00:00 6.8 4 Norte 6 Norte 0 978.6 1.4 83
2018-01-18 10:00:00 4.4 0 Calma 6 Oeste 0 978.3 1.2 97
2018-01-18 09:00:00 3.3 6 Sur 10 Sudoeste 0 977.5 0.4 96
2018-01-18 08:00:00 4.1 4 Este 7 Este 0 977.2 -0.2 96
2018-01-18 07:00:00 3.5 3 Sudeste 5 Sudeste 0 977.1 -0.6 98
2018-01-18 06:00:00 3.8 4 Sudeste 5 Sur 0 977.1 -1.1 98
2018-01-18 05:00:00 4.2 4 Sudoeste 6 Sudoeste 0 977.4 -1 98
2018-01-18 04:00:00 4.4 4 Sudoeste 6 Oeste 0 977.7 -1.1 97
2018-01-18 03:00:00 4.9 5 Sudoeste 7 Sudoeste 0 978.2 -0.8 96
2018-01-18 02:00:00 5.7 2 Noroeste 8 Sudeste 0 978.4 -0.6 90
2018-01-18 01:00:00 6.2 3 Sudeste 6 Sudeste 0 978.8 -0.2 96
2018-01-18 00:00:00 5.9 3 Sudoeste 5 Sudoeste 0 979 0.2 96
2018-01-17 23:00:00 6.4 0 Calma 7 Sudeste 0 979 0.5 94
2018-01-17 22:00:00 7 5 Sudoeste 8 Sudeste 0 979 0.6 94
2018-01-17 21:00:00 8 3 Sur 9 Sudeste 0 978.8 0.5 88
2018-01-17 20:00:00 8.6 2 Sur 5 Este 0 978.5 0.2 88
2018-01-17 19:00:00 10.1 3 Sur 6 Sudoeste 0 978.4 0.1 79
2018-01-17 18:00:00 13.1 6 Sur 12 Este 0 978.3 -0.4 71
2018-01-17 17:00:00 15.3 5 Nordeste 12 Nordeste 0 978.3 -1 60
2018-01-17 16:00:00 15.1 6 Nordeste 14 Este 0 978.3 -1.7 61
2018-01-17 15:00:00 14.6 8 Este 16 Este 0 978.7 -1.6 63
2018-01-17 14:00:00 13.7 10 Nordeste 19 Nordeste 0 979.3 -1 67
2018-01-17 13:00:00 13.4 8 Nordeste 22 Norte 0 980 0.2 67
2018-01-17 12:00:00 12.9 13 Norte 26 Norte 0 980.3 0.9 68
2018-01-17 11:00:00 11.4 13 Noroeste 27 Noroeste 0 980.3 0.7 77
2018-01-17 10:00:00 9.9 6 Noroeste 24 Noroeste 0 979.8 0.2 82
2018-01-17 09:00:00 8.7 11 Noroeste 23 Noroeste 0 979.4 -0.4 87
2018-01-17 08:00:00 8.2 9 Noroeste 18 Noroeste 0 979.6 -0.5 89
2018-01-17 07:00:00 7.7 3 Nordeste 14 Noroeste 0 979.6 -0.6 93
2018-01-17 06:00:00 8.2 5 Noroeste 12 Noroeste 0 979.8 -1 91
2018-01-17 05:00:00 8.7 5 Noroeste 13 Noroeste 0 980.1 -1.6 91
2018-01-17 04:00:00 8.8 7 Noroeste 12 Noroeste 0 980.2 -2 93
2018-01-17 03:00:00 8.1 8 Oeste 13 Noroeste 0 980.8 -1.6 100
2018-01-17 02:00:00 8.5 3 Oeste 15 Noroeste 0 981.7 -0.6 99
2018-01-17 01:00:00 9.7 12 Noroeste 19 Noroeste 0 982.2 0.1 99
2018-01-17 00:00:00 9.7 10 Noroeste 19 Oeste 0 982.4 0.4 99
2018-01-16 23:00:00 9.1 7 Oeste 15 Oeste 0 982.3 0.6 98
2018-01-16 22:00:00 9.8 5 Oeste 23 Oeste 0 982.1 0.6 96
2018-01-16 21:00:00 10.6 15 Oeste 28 Sudoeste 0 982 0.8 93
2018-01-16 20:00:00 11.5 19 Sudoeste 25 Sudoeste 0 981.7 0.2 90
2018-01-16 19:00:00 11.5 17 Sudoeste 27 Sudoeste 0 981.5 0.1 88
2018-01-16 18:00:00 12.5 17 Sudoeste 27 Sudoeste 0 981.2 -0.9 84
2018-01-16 17:00:00 14 12 Oeste 19 Sudoeste 0 981.5 -1.4 77
2018-01-16 16:00:00 14.3 10 Oeste 17 Oeste 0 981.4 -2.1 75
2018-01-16 15:00:00 14.5 11 Oeste 19 Sudoeste 0 982.1 -2 72
2018-01-16 14:00:00 13.5 12 Oeste 21 Oeste 0 982.9 -1.3 70
2018-01-16 13:00:00 13.4 13 Oeste 20 Oeste 0 983.5 -0.2 65
2018-01-16 12:00:00 12.1 9 Oeste 18 Oeste 0 984.1 0.7 53
2018-01-16 11:00:00 10.5 10 Sudoeste 19 Sudoeste 0 984.2 1.1 54
2018-01-16 10:00:00 8.8 13 Sudoeste 19 Sudoeste 0 983.7 1.1 58
2018-01-16 09:00:00 5.2 6 Noroeste 10 Oeste 0 983.4 1.1 72
2018-01-16 08:00:00 4.6 4 Este 10 Sudeste 0 983.1 0.3 84
2018-01-16 07:00:00 5.9 0 Calma 10 Este 0 982.6 -0.4 79
2018-01-16 06:00:00 6.7 6 Noroeste 12 Sudoeste 0 982.3 -0.7 64
2018-01-16 05:00:00 7.3 5 Sudeste 19 Sudoeste 0 982.8 -0.6 70
2018-01-16 04:00:00 8.7 12 Sudoeste 20 Oeste 0 983 -0.6 61
2018-01-16 03:00:00 6.4 5 Sur 12 Norte 0 983 -0.6 76
2018-01-16 02:00:00 7.5 5 Este 27 Sudoeste 0 983.4 0.2 70
2018-01-16 01:00:00 7.8 18 Sudoeste 25 Oeste 0 983.6 0.1 66
2018-01-16 00:00:00 8.3 18 Sudoeste 24 Sudoeste 0 983.6 0.9 62
2018-01-15 23:00:00 8.3 17 Sudoeste 26 Sudoeste 0 983.2 0.5 64
2018-01-15 22:00:00 8 3 Sudoeste 23 Sudoeste 0 983.5 1.5 62
2018-01-15 21:00:00 6.9 10 Sudoeste 14 Oeste 0 982.7 1.1 64
2018-01-15 20:00:00 7.6 11 Oeste 20 Oeste 0 982.7 1.6 61
2018-01-15 19:00:00 6.7 2 Oeste 8 Sudoeste 0 982 1.3 72
2018-01-15 18:00:00 9.6 7 Oeste 14 Oeste 0 981.6 0.6 59
2018-01-15 17:00:00 11.5 8 Sudoeste 16 Sudoeste 0 981.1 -0.1 48
2018-01-15 16:00:00 11.2 8 Oeste 13 Oeste 0 980.7 -0.7 49
2018-01-15 15:00:00 10.5 5 Norte 12 Norte 0 981 -1 58
2018-01-15 14:00:00 9.5 6 Norte 14 Norte 0 981.2 -0.8 64
2018-01-15 13:00:00 8.4 5 Norte 9 Nordeste 0 981.4 0.6 70
2018-01-15 12:00:00 6.7 2 Noroeste 6 Noroeste 0 982 1.8 73
2018-01-15 11:00:00 4.4 3 Norte 6 Noroeste 0 982 3.3 83
2018-01-15 10:00:00 2.3 2 Noroeste 6 Oeste 0 980.8 2.1 96
2018-01-15 09:00:00 0 2 Oeste 10 Oeste 0 980.2 2 94
2018-01-15 08:00:00 0.3 4 Sudoeste 5 Sudoeste 0 978.7 0.6 96
2018-01-15 07:00:00 0.4 0 Calma 8 Sudoeste 0 978.7 0.8 94
2018-01-15 06:00:00 1.1 5 Sudoeste 8 Sudoeste 0 978.2 0.9 94
2018-01-15 05:00:00 1.2 5 Sudoeste 7 Sudoeste 0 978.1 1.1 97
2018-01-15 04:00:00 1.2 4 Sudoeste 6 Sudoeste 0 977.9 0.8 97
2018-01-15 03:00:00 1.4 4 Sudoeste 5 Sudoeste 0 977.3 0.5 96
2018-01-15 02:00:00 1.5 3 Sudoeste 5 Sur 0 977 0.5 95
2018-01-15 01:00:00 1.8 4 Sudoeste 5 Sudoeste 0 977.1 1.3 95
2018-01-15 00:00:00 2 3 Sudoeste 7 Sudoeste 0 976.8 1.7 91
2018-01-14 23:00:00 2.7 5 Sudoeste 7 Sudoeste 0 976.5 2.1 87
2018-01-14 22:00:00 3.5 5 Oeste 8 Oeste 0 975.8 2.2 82
2018-01-14 21:00:00 4.2 4 Sudoeste 7 Oeste 0 975.1 1.8 83
2018-01-14 20:00:00 4.7 4 Oeste 6 Sudoeste 0 974.4 1.6 81
2018-01-14 19:00:00 6.4 4 Oeste 10 Oeste 0 973.6 1 76
2018-01-14 18:00:00 7.5 5 Norte 18 Norte 0 973.3 0.6 70
2018-01-14 17:00:00 8.8 10 Noroeste 29 Noroeste 0 972.8 -0.2 67
2018-01-14 16:00:00 8.8 13 Noroeste 21 Noroeste 0 972.6 -0.9 66
2018-01-14 15:00:00 7.6 12 Noroeste 23 Noroeste 0 972.7 -1.4 69
2018-01-14 14:00:00 6.7 11 Noroeste 21 Norte 0 973 -0.6 82
2018-01-14 13:00:00 7.2 8 Oeste 16 Noroeste 0 973.5 0.2 80
2018-01-14 12:00:00 6.6 8 Noroeste 15 Noroeste 0 974.1 0.8 85
2018-01-14 11:00:00 6.2 7 Oeste 12 Noroeste 0 973.6 0.8 86
2018-01-14 10:00:00 4.5 6 Noroeste 12 Noroeste 0 973.3 0.9 95
2018-01-14 09:00:00 4.3 4 Noroeste 8 Noroeste 0 973.3 0.9 97
2018-01-14 08:00:00 4.4 6 Noroeste 19 Sudoeste 0 972.8 -0.1 94
2018-01-14 07:00:00 5.3 14 Oeste 26 Oeste 0 972.4 -0.4 91
2018-01-14 06:00:00 5.4 17 Sudoeste 26 Sudoeste 0 972.4 -0.6 91
2018-01-14 05:00:00 5.7 18 Sudoeste 27 Sudoeste 0 972.9 -0.4 90
2018-01-14 04:00:00 6 18 Sudoeste 28 Sudoeste 0 972.8 -1.2 90
2018-01-14 03:00:00 5.6 15 Sudoeste 23 Sudoeste 0 973 -1.3 95
2018-01-14 02:00:00 6 15 Sudoeste 25 Sudoeste 0 973.3 -1.4 90
2018-01-14 01:00:00 6 14 Sudoeste 22 Sudoeste 0 974 0.1 90
2018-01-14 00:00:00 5.9 17 Sudoeste 26 Oeste 1.2 974.3 0.7 92
2018-01-13 23:00:00 6.6 16 Oeste 31 Oeste 0.2 974.7 1.8 87
2018-01-13 22:00:00 6.4 14 Sudoeste 24 Oeste 0 973.9 1.3 88
2018-01-13 21:00:00 6.5 15 Sudoeste 30 Sudoeste 0 973.6 1.2 89
2018-01-13 20:00:00 6.6 17 Sudoeste 28 Oeste 0 972.9 0.4 90
2018-01-13 19:00:00 6.9 16 Sudoeste 24 Sudoeste 0 972.6 0.7 92
2018-01-13 18:00:00 7.4 10 Oeste 18 Noroeste 0 972.4 1 90
2018-01-13 17:00:00 7.5 12 Noroeste 19 Noroeste 0 972.5 1.5 91
2018-01-13 16:00:00 7.1 11 Noroeste 19 Noroeste 0 971.9 0.7 96
2018-01-13 15:00:00 6.8 14 Noroeste 28 Oeste 0 971.4 0.1 95
2018-01-13 14:00:00 6.9 13 Sudoeste 43 Sur 0 971 -0.2 96
2018-01-13 13:00:00 6.6 27 Sur 44 Sur 0 971.2 -0.6 93
2018-01-13 12:00:00 6.8 23 Sur 41 Sudeste 1.4 971.3 -0.5 94
2018-01-13 11:00:00 5.9 30 Sudeste 39 Sur 2.2 971.2 -0.5 93
2018-01-13 10:00:00 5.5 26 Sur 41 Sur 1.6 971.8 -0.1 92
2018-01-13 09:00:00 5.7 24 Sur 34 Sur 1 971.8 -0.8 89
2018-01-13 08:00:00 6.1 13 Sur 21 Sur 0.2 971.7 -1.8 84
2018-01-13 07:00:00 6.3 17 Sur 28 Sur 0 971.9 -2.3 78
2018-01-13 06:00:00 4.5 8 Sur 20 Sur 0 972.6 -1.8 91
2018-01-13 05:00:00 3.2 0 Calma 8 Noroeste 0 973.5 -1.6 92
2018-01-13 04:00:00 3 5 Noroeste 8 Noroeste 0 974.2 -1.7 92
2018-01-13 03:00:00 3 0 Calma 4 Sudoeste 0 974.4 -2 91
2018-01-13 02:00:00 2.9 2 Noroeste 5 Noroeste 0 975.1 -1.7 89
2018-01-13 01:00:00 3.7 3 Norte 8 Noroeste 0 975.9 -0.8 84
2018-01-13 00:00:00 5.4 6 Sur 15 Sur 0 976.4 -0.4 76
2018-01-12 23:00:00 5.1 6 Sur 12 Sudoeste 0 976.8 -0.5 78
2018-01-12 22:00:00 5.9 10 Sur 19 Sur 0 976.7 -1 82
2018-01-12 21:00:00 5.8 11 Sur 13 Sur 0 976.8 -0.9 85
2018-01-12 20:00:00 5.3 3 Sur 7 Sudoeste 0 977.3 -0.6 87
2018-01-12 19:00:00 6.4 4 Sudoeste 8 Sudoeste 0 977.7 -0.5 82
2018-01-12 18:00:00 8.6 3 Noroeste 5 Nordeste 0 977.7 -0.8 74
2018-01-12 17:00:00 9.4 4 Este 10 Sudeste 0 977.9 -1.2 68
2018-01-12 16:00:00 9.7 3 Nordeste 8 Norte 0 978.2 -1.7 66
2018-01-12 15:00:00 9.1 6 Norte 10 Norte 0 978.5 -1.8 69
2018-01-12 14:00:00 8.7 3 Norte 9 Norte 0 979.1 -1.5 72
2018-01-12 13:00:00 7.6 4 Norte 11 Este 0 979.9 -0.5 76
2018-01-12 12:00:00 5.6 4 Este 7 Sudeste 0 980.3 0.8 80
2018-01-12 11:00:00 4.7 4 Este 8 Este 0 980.6 1.1 84
2018-01-12 10:00:00 2.1 3 Noroeste 6 Oeste 0 980.4 1.1 93
2018-01-12 09:00:00 0.5 0 Calma 8 Sudoeste 0 979.5 0 93
2018-01-12 08:00:00 0.9 0 Calma 6 Este 0 979.5 -0.3 91
2018-01-12 07:00:00 1.7 3 Sudoeste 8 Sudoeste 0 979.3 -0.8 89
2018-01-12 06:00:00 1.9 4 Oeste 9 Sur 0 979.5 -0.5 85
2018-01-12 05:00:00 2.8 6 Sudoeste 10 Sudoeste 0 979.8 -0.9 84
2018-01-12 04:00:00 3 8 Oeste 11 Sudoeste 0 980.1 -0.9 83
2018-01-12 03:00:00 4.3 3 Sudoeste 16 Oeste 0 980 -1.1 78
2018-01-12 02:00:00 5 10 Oeste 19 Noroeste 0 980.7 0 76
2018-01-12 01:00:00 5.4 8 Oeste 16 Oeste 0 981 0.4 75
2018-01-12 00:00:00 5.9 5 Oeste 15 Oeste 0 981.1 0.6 71
2018-01-11 23:00:00 5.9 8 Oeste 15 Noroeste 0 980.7 0.6 72
2018-01-11 22:00:00 6.1 8 Oeste 15 Oeste 0 980.6 0.8 72
2018-01-11 21:00:00 6.9 8 Oeste 13 Oeste 0 980.5 1.1 66
2018-01-11 20:00:00 7.2 7 Noroeste 15 Oeste 0 980.1 0.9 66
2018-01-11 19:00:00 8.2 9 Oeste 17 Oeste 0 979.8 0.7 63
2018-01-11 18:00:00 9.8 10 Oeste 19 Norte 0 979.4 0.2 58
2018-01-11 17:00:00 11.3 15 Noroeste 26 Norte 0 979.2 -0.2 50
2018-01-11 16:00:00 11.4 18 Noroeste 31 Oeste 0 979.1 -0.5 51
2018-01-11 15:00:00 11.3 23 Noroeste 38 Noroeste 0 979.2 -1 50
2018-01-11 14:00:00 11.3 20 Noroeste 33 Noroeste 0 979.4 -0.4 55
2018-01-11 13:00:00 9.9 14 Noroeste 31 Noroeste 0 979.6 0.6 72
2018-01-11 12:00:00 9.4 17 Oeste 31 Oeste 0 980.2 2.1 77
2018-01-11 11:00:00 8.8 18 Oeste 33 Oeste 0 979.8 2.1 82
2018-01-11 10:00:00 7.8 19 Oeste 42 Oeste 0 979 1.3 87
2018-01-11 09:00:00 7.1 24 Sudoeste 37 Oeste 0 978.1 0.2 88
2018-01-11 08:00:00 6.8 25 Sudoeste 38 Oeste 0 977.7 -0.3 88
2018-01-11 07:00:00 6.8 24 Sudoeste 37 Sudoeste 0 977.7 -0.7 89
2018-01-11 06:00:00 7.1 23 Sudoeste 41 Sudoeste 0 977.9 -0.5 86
2018-01-11 05:00:00 7 27 Sudoeste 44 Oeste 0 978 -0.4 85
2018-01-11 04:00:00 7 28 Sudoeste 42 Oeste 0 978.4 -0.4 83
2018-01-11 03:00:00 6.5 26 Sudoeste 38 Oeste 0 978.4 -0.4 83
2018-01-11 02:00:00 6.5 27 Sudoeste 41 Oeste 0 978.4 0.1 83
2018-01-11 01:00:00 6.4 18 Oeste 32 Oeste 0 978.8 1.1 83
2018-01-11 00:00:00 6.4 19 Sudoeste 34 Oeste 0 978.8 1.4 85
2018-01-10 23:00:00 6.7 19 Oeste 31 Oeste 0 978.3 1.7 85
2018-01-10 22:00:00 7.2 20 Oeste 31 Oeste 0 977.7 2 83
2018-01-10 21:00:00 7.8 19 Oeste 33 Oeste 0 977.4 2.9 77
2018-01-10 20:00:00 9 19 Oeste 33 Oeste 0 976.6 2.8 81
2018-01-10 19:00:00 9.5 14 Oeste 31 Oeste 0 975.7 2.6 85
2018-01-10 18:00:00 10.4 16 Oeste 29 Oeste 0 974.5 1.4 83
2018-01-10 17:00:00 10.9 18 Oeste 45 Oeste 1 973.8 0.3 85
2018-01-10 16:00:00 10.9 9 Oeste 42 Sudoeste 0.8 973.1 -1.8 92
2018-01-10 15:00:00 11 22 Sudoeste 49 Oeste 0.4 973.1 -2.2 90
2018-01-10 14:00:00 10.5 7 Oeste 45 Sudoeste 0 973.5 -2.1 89
2018-01-10 13:00:00 9.4 19 Sudoeste 36 Sudoeste 0 974.9 0 93
2018-01-10 12:00:00 8.5 10 Sur 32 Sudoeste 0 975.3 1 96
2018-01-10 11:00:00 7.6 19 Sudoeste 39 Sudoeste 0 975.6 1.5 98
2018-01-10 10:00:00 7.4 14 Sudoeste 24 Sudoeste 0 974.9 1.6 99
2018-01-10 09:00:00 6.7 13 Sudoeste 21 Sudoeste 0 974.3 1.1 100
2018-01-10 08:00:00 6.4 9 Oeste 18 Oeste 0 974.1 1.3 100
2018-01-10 07:00:00 6 13 Oeste 28 Sudoeste 0 973.3 1.2 100
2018-01-10 06:00:00 6 5 Oeste 14 Noroeste 0 973.2 1.3 100
2018-01-10 05:00:00 6 10 Oeste 17 Oeste 0.2 972.8 1 100
2018-01-10 04:00:00 6 4 Noroeste 6 Noroeste 0 972.1 0.6 100
2018-01-10 03:00:00 5.8 2 Oeste 13 Noroeste 0 971.9 0.7 100
2018-01-10 02:00:00 5.8 9 Noroeste 13 Noroeste 0 971.8 0.7 99
2018-01-10 01:00:00 5.9 3 Noroeste 13 Noroeste 0 971.5 0.8 99
2018-01-10 00:00:00 6.7 4 Noroeste 7 Noroeste 0.4 971.2 1 98
2018-01-09 23:00:00 7.1 2 Este 7 Este 0.8 971.1 1 99
2018-01-09 22:00:00 7 4 Este 18 Sudeste 0.6 970.7 0.8 98
2018-01-09 21:00:00 7.1 13 Este 20 Sudeste 0 970.2 0.5 97
2018-01-09 20:00:00 6.8 10 Sudeste 21 Sudeste 0.6 970.1 0.2 98
2018-01-09 19:00:00 6.4 17 Este 22 Sudeste 1 969.9 -0.4 97
2018-01-09 18:00:00 6.5 15 Sudeste 29 Sudeste 0.6 969.7 -0.4 97
2018-01-09 17:00:00 6.1 17 Sudeste 25 Este 0.6 969.9 -1.3 96
2018-01-09 16:00:00 6.7 13 Sudeste 31 Sudeste 0.4 970.3 -1.7 93
2018-01-09 15:00:00 6 19 Sudeste 32 Sudeste 0.4 970.1 -2.2 89
2018-01-09 14:00:00 5.5 16 Sudeste 28 Sudeste 0.4 971.2 -1 87
2018-01-09 13:00:00 5.7 18 Sudeste 28 Sur 0.2 972 -0.1 82
2018-01-09 12:00:00 5.5 21 Sur 35 Sur 0 972.3 1.2 81
2018-01-09 11:00:00 5 18 Sur 29 Sur 0 972.2 1.1 80
2018-01-09 10:00:00 4.8 7 Sudeste 20 Sur 0 972.1 1.2 80
2018-01-09 09:00:00 4.5 13 Sur 24 Sur 0 971.1 0.3 83
2018-01-09 08:00:00 4 11 Sur 22 Sudoeste 0 971.1 0.7 86
2018-01-09 07:00:00 4.7 16 Sudoeste 27 Sudoeste 0 970.9 0.9 82
2018-01-09 06:00:00 3.9 13 Sudoeste 19 Sudoeste 0 970.8 1.1 85
2018-01-09 05:00:00 2.5 4 Oeste 13 Sur 0 970.4 0.3 86
2018-01-09 04:00:00 4 10 Sur 15 Sudoeste 0 970 -0.3 82
2018-01-09 03:00:00 4.5 10 Sur 18 Sur 0 969.7 -0.8 79
2018-01-09 02:00:00 4.1 14 Sur 19 Sur 0 970.1 0 80
2018-01-09 01:00:00 3 7 Sur 11 Sudoeste 0 970.3 0.5 85
2018-01-09 00:00:00 3.1 6 Sudoeste 11 Sudoeste 0 970.5 1.5 85
2018-01-08 23:00:00 3.2 9 Sudoeste 12 Sudoeste 0 970.1 1.1 86
2018-01-08 22:00:00 3.3 6 Sudoeste 11 Sudoeste 0 969.8 1.4 84
2018-01-08 21:00:00 3.1 6 Sur 8 Sudoeste 0 969 1.7 89
2018-01-08 20:00:00 3.8 7 Sudoeste 8 Sudoeste 0 969 2.2 85
2018-01-08 19:00:00 5.2 4 Sudoeste 7 Sudoeste 0 968.4 2 83
2018-01-08 18:00:00 7.7 4 Norte 15 Norte 0 967.3 1.7 72
2018-01-08 17:00:00 9.1 8 Norte 17 Norte 0 966.8 1 63
2018-01-08 16:00:00 9.5 8 Nordeste 16 Este 0 966.4 0.1 61
2018-01-08 15:00:00 9.1 7 Nordeste 18 Este 0 965.6 -1.4 63
2018-01-08 14:00:00 8.1 6 Nordeste 18 Este 0 965.8 -0.5 68
2018-01-08 13:00:00 7.3 7 Nordeste 18 Nordeste 0 966.3 0.9 75
2018-01-08 12:00:00 5.5 5 Norte 12 Norte 0 967 2.1 82
2018-01-08 11:00:00 4.5 5 Nordeste 8 Nordeste 0 966.3 2.6 90
2018-01-08 10:00:00 3 0 Calma 5 Sudoeste 0 965.4 2.5 98
2018-01-08 09:00:00 2.3 5 Noroeste 8 Norte 0 964.9 2.5 97
2018-01-08 08:00:00 2.6 4 Sur 7 Sur 0 963.7 2.2 96
2018-01-08 07:00:00 3.5 5 Sudeste 15 Este 0 962.9 2 95
2018-01-08 06:00:00 3.7 10 Este 19 Este 0 962.4 2.6 95
2018-01-08 05:00:00 3.7 11 Este 24 Nordeste 0 961.5 2.1 96
2018-01-08 04:00:00 3.6 13 Nordeste 24 Nordeste 0.2 960.9 1.4 97
2018-01-08 03:00:00 3.8 13 Nordeste 22 Nordeste 0.4 959.8 0.4 97
2018-01-08 02:00:00 3.8 10 Nordeste 17 Nordeste 0.2 959.4 0.5 98
2018-01-08 01:00:00 3.1 3 Noroeste 13 Noroeste 1.4 959.5 1 97
2018-01-08 00:00:00 3.1 10 Noroeste 16 Norte 0.8 959.4 1 94
2018-01-07 23:00:00 3.6 8 Noroeste 13 Noroeste 1.6 958.9 0.9 93
2018-01-07 22:00:00 4.1 4 Noroeste 12 Noroeste 0.2 958.5 1.3 96
2018-01-07 21:00:00 4.4 6 Norte 22 Norte 0.2 958.4 1.9 95
2018-01-07 20:00:00 5.1 12 Norte 24 Noroeste 0 958 2.1 90
2018-01-07 19:00:00 6.3 11 Noroeste 19 Noroeste 0 957.2 1.7 77
2018-01-07 18:00:00 6.6 12 Noroeste 20 Noroeste 0 956.5 1.3 74
2018-01-07 17:00:00 6.8 13 Oeste 26 Noroeste 0 955.9 0.7 71
2018-01-07 16:00:00 7.1 15 Noroeste 34 Noroeste 0 955.5 0 68
2018-01-07 15:00:00 6.5 20 Noroeste 34 Noroeste 0 955.2 -0.6 68
2018-01-07 14:00:00 6.3 19 Noroeste 31 Noroeste 0 955.2 -0.4 68
2018-01-07 13:00:00 6 14 Noroeste 25 Noroeste 0 955.5 0.3 69
2018-01-07 12:00:00 5.5 14 Noroeste 26 Noroeste 0 955.8 0.9 71
2018-01-07 11:00:00 5 17 Noroeste 32 Noroeste 0 955.6 0.9 73
2018-01-07 10:00:00 4.7 17 Noroeste 29 Norte 0 955.2 0.5 72
2018-01-07 09:00:00 4.7 19 Noroeste 32 Noroeste 0 954.9 0.4 72
2018-01-07 08:00:00 4.8 16 Noroeste 28 Noroeste 0 954.7 -0.1 69
2018-01-07 07:00:00 4.5 14 Noroeste 23 Noroeste 0 954.7 -0.2 72
2018-01-07 06:00:00 4.5 14 Noroeste 24 Noroeste 0 954.5 -0.3 70
2018-01-07 05:00:00 4.7 17 Noroeste 30 Noroeste 0 954.8 -0.2 68
2018-01-07 04:00:00 4.6 18 Noroeste 30 Noroeste 0 954.9 -0.7 70
2018-01-07 03:00:00 4.8 18 Noroeste 34 Noroeste 0 954.8 -1.4 68
2018-01-07 02:00:00 4.8 20 Noroeste 33 Noroeste 0 955 -1.4 68
2018-01-07 01:00:00 4.9 18 Noroeste 33 Oeste 0 955.6 -0.9 68
2018-01-07 00:00:00 5.1 17 Oeste 29 Noroeste 0 956.2 -0.4 67
2018-01-06 23:00:00 5.3 16 Noroeste 28 Noroeste 0 956.4 0.1 66
2018-01-06 22:00:00 5.6 16 Noroeste 32 Norte 0 956.5 0.3 64
2018-01-06 21:00:00 5.6 15 Noroeste 27 Noroeste 0 956.6 0.6 62
2018-01-06 20:00:00 5.7 18 Noroeste 32 Noroeste 0 956.3 0.6 61
2018-01-06 19:00:00 6.2 15 Noroeste 30 Noroeste 0 956.2 0.9 62
2018-01-06 18:00:00 7.2 17 Noroeste 35 Noroeste 0 956 1.2 61
2018-01-06 17:00:00 8.5 24 Noroeste 37 Noroeste 0 955.7 0.7 55
2018-01-06 16:00:00 8.9 22 Noroeste 44 Noroeste 0 955.3 -0.3 54
2018-01-06 15:00:00 8.7 26 Noroeste 45 Noroeste 0 954.8 -1.3 60
2018-01-06 14:00:00 8.3 26 Noroeste 42 Noroeste 0 955 -1.1 59
2018-01-06 13:00:00 7.4 23 Noroeste 36 Noroeste 0 955.6 -0.5 69
2018-01-06 12:00:00 6.1 17 Noroeste 28 Noroeste 0 956.1 0.4 74
2018-01-06 11:00:00 5 17 Noroeste 30 Noroeste 0 956.1 0.8 79
2018-01-06 10:00:00 4.7 14 Noroeste 24 Noroeste 0 956.1 0.5 80
2018-01-06 09:00:00 4.6 12 Noroeste 20 Noroeste 0 955.7 -0.2 81
2018-01-06 08:00:00 4.8 10 Noroeste 18 Norte 0 955.3 -0.8 83
2018-01-06 07:00:00 5.5 10 Noroeste 18 Noroeste 0 955.6 -0.6 84
2018-01-06 06:00:00 5.7 9 Noroeste 18 Noroeste 0 955.9 -1 85
2018-01-06 05:00:00 6 12 Noroeste 21 Noroeste 0 956.1 -1.8 88
2018-01-06 04:00:00 6.4 13 Noroeste 22 Noroeste 0 956.2 -2.6 90
2018-01-06 03:00:00 6.6 11 Noroeste 17 Noroeste 0 956.9 -2.5 93
2018-01-06 02:00:00 6.8 8 Noroeste 22 Oeste 0 957.9 -1.4 93
2018-01-06 01:00:00 6.7 4 Oeste 11 Oeste 0 958.8 -1.7 94
2018-01-06 00:00:00 7.1 4 Oeste 16 Este 0 959.4 -1.6 95
2018-01-05 23:00:00 7.3 8 Sudeste 10 Sudeste 0.6 959.3 -1.4 93
2018-01-05 22:00:00 7.5 2 Este 9 Noroeste 2.4 960.5 -0.7 95
2018-01-05 21:00:00 7.7 7 Noroeste 32 Norte 1.4 961 -0.9 94
2018-01-05 20:00:00 9.5 19 Sudoeste 31 Oeste 0.8 960.7 -2.1 95
2018-01-05 19:00:00 9.8 15 Sur 32 Sudoeste 0.2 961.2 -2 93
2018-01-05 18:00:00 9.9 12 Sur 27 Sur 1.8 961.9 -1.8 93
2018-01-05 17:00:00 10.2 16 Sudoeste 38 Oeste 1.4 962.8 -1.9 92
2018-01-05 16:00:00 10.6 13 Oeste 38 Sur 1.6 963.2 -3.1 92
2018-01-05 15:00:00 10.8 13 Sur 39 Sur 1.6 963.7 -4.2 93
2018-01-05 14:00:00 10.8 18 Sur 43 Sudoeste 1.6 964.7 -4.1 92
2018-01-05 13:00:00 10.3 19 Sur 41 Sur 2.2 966.3 -2.9 94
2018-01-05 12:00:00 10.6 15 Sur 42 Sudoeste 0.2 967.9 -1.6 91
2018-01-05 11:00:00 10.8 23 Sur 43 Sur 0 968.8 -1.6 88
2018-01-05 10:00:00 10.5 21 Sur 49 Sur 0 969.2 -2.3 89
2018-01-05 09:00:00 10.3 26 Sur 55 Sur 0 969.5 -3.2 89
2018-01-05 08:00:00 10.3 21 Sur 41 Sur 0 970.4 -3 89
2018-01-05 07:00:00 10.1 14 Sur 41 Sur 0 971.5 -2.7 92
2018-01-05 06:00:00 10.2 10 Sudoeste 29 Sudoeste 0 972.7 -2.3 91
2018-01-05 05:00:00 10.1 13 Sudoeste 26 Oeste 0 973.4 -2.5 90
2018-01-05 04:00:00 10.9 13 Oeste 29 Oeste 0 974.2 -2.8 82
2018-01-05 03:00:00 10.8 14 Oeste 29 Sudoeste 0 975 -2.7 85
2018-01-05 02:00:00 11.6 9 Sudoeste 27 Sudoeste 0 975.9 -2.3 88
2018-01-05 01:00:00 12 11 Sudoeste 24 Sudoeste 0 977 -1.7 84
2018-01-05 00:00:00 12.1 10 Sudoeste 23 Oeste 0 977.7 -1.4 86
2018-01-04 23:00:00 12.2 14 Sudoeste 33 Sudoeste 0 978.2 -0.9 88
2018-01-04 22:00:00 12.4 9 Sur 22 Sur 0 978.7 -0.7 86
2018-01-04 21:00:00 12.3 11 Sudoeste 26 Sur 0 979.1 -0.9 85
2018-01-04 20:00:00 13 12 Sudoeste 23 Sudoeste 0 979.1 -1.1 74
2018-01-04 19:00:00 13.5 12 Sudoeste 21 Sudoeste 0 979.4 -0.9 67
2018-01-04 18:00:00 14 14 Sudoeste 24 Sudoeste 0 980 -0.7 69
2018-01-04 17:00:00 14.6 13 Oeste 23 Oeste 0 980.2 -1.5 71
2018-01-04 16:00:00 14.8 13 Oeste 30 Oeste 0 980.3 -3 69
2018-01-04 15:00:00 14.7 13 Oeste 26 Oeste 0 980.7 -3.1 71
2018-01-04 14:00:00 14.4 9 Oeste 25 Sudoeste 0 981.7 -2.1 78
2018-01-04 13:00:00 13.6 14 Oeste 29 Oeste 0 983.3 -0.1 87
2018-01-04 12:00:00 13.8 17 Sudoeste 26 Oeste 0 983.8 0.3 88
2018-01-04 11:00:00 11.6 20 Sudoeste 32 Oeste 0 983.8 0.5 95
2018-01-04 10:00:00 11.1 19 Sudoeste 26 Oeste 0 983.4 0 94
2018-01-04 09:00:00 10.8 14 Sudoeste 23 Sudoeste 0 983.5 0 94
2018-01-04 08:00:00 10.8 17 Sudoeste 26 Oeste 0 983.3 -0.5 96
2018-01-04 07:00:00 11.3 17 Sudoeste 24 Oeste 0 983.4 -1.1 95
2018-01-04 06:00:00 11.2 15 Oeste 25 Sudoeste 0 983.5 -1.2 95
2018-01-04 05:00:00 11.5 13 Sudoeste 21 Sudoeste 0 983.8 -1.3 95
2018-01-04 04:00:00 11.8 10 Oeste 21 Sudoeste 0 984.5 -1 96
2018-01-04 03:00:00 11.8 15 Oeste 29 Oeste 0 984.7 -1.2 97
2018-01-04 02:00:00 12.1 17 Oeste 29 Oeste 0 985.1 -0.8 96
2018-01-04 01:00:00 12.2 17 Sudoeste 26 Sudoeste 0 985.5 -0.4 94
2018-01-04 00:00:00 12.8 13 Oeste 24 Oeste 0 985.9 -0.2 91
2018-01-03 23:00:00 12.7 11 Oeste 24 Oeste 0 985.9 0.1 92
2018-01-03 22:00:00 13.1 15 Oeste 29 Oeste 0 985.9 0.2 91
2018-01-03 21:00:00 13.3 17 Oeste 27 Oeste 0 986.1 0.3 91
2018-01-03 20:00:00 13.7 15 Sudoeste 27 Sudoeste 0 985.8 -0.5 88
2018-01-03 19:00:00 14 15 Sudoeste 21 Sudoeste 0 985.7 -0.7 84
2018-01-03 18:00:00 14.3 8 Sudoeste 16 Sudoeste 0 985.8 -1.2 84
2018-01-03 17:00:00 15.4 10 Oeste 18 Noroeste 0 986.3 -1.5 79
2018-01-03 16:00:00 14.8 10 Oeste 19 Sudoeste 0 986.4 -1.7 81
2018-01-03 15:00:00 14.3 10 Oeste 19 Oeste 0 987 -1.4 84
2018-01-03 14:00:00 13.5 9 Noroeste 21 Noroeste 0 987.8 -0.8 89
2018-01-03 13:00:00 13.6 7 Noroeste 18 Noroeste 0 988.1 0 89
2018-01-03 12:00:00 12.9 11 Oeste 19 Oeste 0 988.4 0.6 92
2018-01-03 11:00:00 12 9 Oeste 22 Oeste 0 988.6 1.1 95
2018-01-03 10:00:00 12 6 Oeste 15 Noroeste 0 988.1 1.1 95
2018-01-03 09:00:00 11.9 9 Oeste 16 Noroeste 0 987.8 0.8 94
2018-01-03 08:00:00 11.7 6 Oeste 21 Oeste 0 987.5 -0.1 97
2018-01-03 07:00:00 11.5 14 Sudoeste 26 Oeste 0 987 -0.5 98
2018-01-03 06:00:00 11.4 15 Sudoeste 23 Oeste 0 987 -0.3 97
2018-01-03 05:00:00 11.6 9 Oeste 25 Oeste 0 987.6 0.4 97
2018-01-03 04:00:00 11.4 12 Oeste 26 Oeste 0 987.5 -0.1 97
2018-01-03 03:00:00 11.5 15 Oeste 26 Oeste 0 987.3 -0.6 96
2018-01-03 02:00:00 11.8 13 Oeste 23 Sudoeste 0 987.2 -0.8 94
2018-01-03 01:00:00 12.1 16 Oeste 32 Sudoeste 0 987.6 -0.5 91
2018-01-03 00:00:00 12.3 12 Oeste 24 Oeste 0 987.9 -0.1 90
2018-01-02 23:00:00 12.4 12 Oeste 26 Oeste 0 988 0.1 87
2018-01-02 22:00:00 12.5 19 Oeste 28 Oeste 0 988.1 0.5 86
2018-01-02 21:00:00 12.1 16 Oeste 31 Oeste 0 988 0.4 86
2018-01-02 20:00:00 12.7 10 Oeste 17 Sudoeste 0 987.9 0.4 83
2018-01-02 19:00:00 12.8 10 Oeste 17 Sudoeste 0 987.6 0.2 81
2018-01-02 18:00:00 13 10 Sudoeste 18 Oeste 0 987.6 0.2 80
2018-01-02 17:00:00 13.2 12 Oeste 20 Oeste 0 987.5 0 79
2018-01-02 16:00:00 13 13 Oeste 24 Noroeste 0 987.4 -1.2 79
2018-01-02 15:00:00 13.3 14 Oeste 30 Noroeste 0 987.4 -1.6 77
2018-01-02 14:00:00 14 15 Oeste 29 Noroeste 0 987.5 -1.1 73
2018-01-02 13:00:00 12.9 17 Noroeste 28 Noroeste 0 988.6 0.7 76
2018-01-02 12:00:00 11.6 14 Oeste 29 Oeste 0 989 1.6 82
2018-01-02 11:00:00 10.3 15 Oeste 26 Oeste 0 988.6 1.7 86
2018-01-02 10:00:00 9.1 14 Sudoeste 31 Oeste 0 987.9 1.1 89
2018-01-02 09:00:00 8.6 21 Oeste 29 Oeste 0 987.4 0.7 90
2018-01-02 08:00:00 8.2 21 Sudoeste 33 Oeste 0 986.9 0.2 92
2018-01-02 07:00:00 8.2 24 Sudoeste 35 Sudoeste 0 986.8 -0.3 92
2018-01-02 06:00:00 8.1 21 Sudoeste 30 Oeste 0 986.7 -0.7 92
2018-01-02 05:00:00 8.5 20 Sudoeste 31 Oeste 0 986.7 -1.3 90
2018-01-02 04:00:00 8.5 18 Sudoeste 31 Oeste 0 987.1 -1 91
2018-01-02 03:00:00 8.8 20 Sudoeste 30 Sudoeste 0 987.4 -0.8 89
2018-01-02 02:00:00 8.7 17 Sudoeste 24 Sudoeste 0 988 0 90
2018-01-02 01:00:00 8.9 20 Sudoeste 29 Sudoeste 0 988.1 0 90
2018-01-02 00:00:00 9.1 21 Sudoeste 39 Sudoeste 0 988.2 0.3 90
2018-01-01 23:00:00 9.6 18 Oeste 33 Oeste 0 988 0.4 88
2018-01-01 22:00:00 10 20 Oeste 34 Oeste 0 988.1 0.9 85
2018-01-01 21:00:00 10.1 18 Sudoeste 27 Sudoeste 0 987.9 0.9 83
2018-01-01 20:00:00 10 14 Sudoeste 25 Sudoeste 0 987.6 0.7 82
2018-01-01 19:00:00 11 18 Sudoeste 25 Oeste 0 987.2 0.2 78
2018-01-01 18:00:00 11.6 13 Oeste 27 Oeste 0 987 0 75
2018-01-01 17:00:00 12.3 15 Oeste 35 Oeste 0 986.9 -0.3 71
2018-01-01 16:00:00 13.1 18 Oeste 31 Oeste 0 987 -1.2 66
2018-01-01 15:00:00 12.8 15 Oeste 28 Oeste 0 987 -1.7 65
2018-01-01 14:00:00 12 19 Oeste 31 Sudoeste 0 987.2 -1.5 70
2018-01-01 13:00:00 11.4 18 Sudoeste 27 Oeste 0 988.2 -0.5 72
2018-01-01 12:00:00 10.4 12 Sudoeste 22 Noroeste 0 988.7 1.1 75
2018-01-01 11:00:00 9.6 12 Sudoeste 21 Sudoeste 0 988.7 1.6 73
2018-01-01 10:00:00 8.3 13 Sudoeste 19 Sudoeste 0 988.7 2.6 79
2018-01-01 09:00:00 4 3 Este 7 Norte 0 987.6 0.8 93
2018-01-01 08:00:00 4.8 0 Calma 14 Sudoeste 0 987.1 0.5 90
2018-01-01 07:00:00 6.3 6 Sudoeste 11 Sudoeste 0 986.1 -0.6 85
2018-01-01 06:00:00 7.3 8 Oeste 14 Oeste 0 986.8 0.2 83
2018-01-01 05:00:00 6.9 6 Oeste 14 Oeste 0 986.6 -0.2 84
2018-01-01 04:00:00 6.9 3 Noroeste 24 Sudoeste 0 986.7 -0.3 84
2018-01-01 03:00:00 8 15 Oeste 25 Oeste 0 986.6 -0.4 82
2018-01-01 02:00:00 8.3 17 Sudoeste 28 Sudoeste 0 986.8 0.6 80
2018-01-01 01:00:00 8.3 19 Sudoeste 27 Oeste 0 987 1.6 81
2018-01-01 00:00:00 8.8 17 Oeste 26 Oeste 0 987 2.9 76
2017-12-31 23:00:00 8.8 14 Oeste 24 Oeste 0 986.2 3.1 81
2017-12-31 22:00:00 9.2 15 Oeste 26 Oeste 0 985.4 3.8 85
2017-12-31 21:00:00 9.7 17 Oeste 31 Oeste 0 984.1 3.8 84
2017-12-31 20:00:00 10.3 18 Oeste 35 Oeste 0 983.1 4.5 77
2017-12-31 19:00:00 10.6 17 Oeste 36 Oeste 0 981.6 3.3 78
2017-12-31 18:00:00 11 18 Oeste 32 Noroeste 0 980.3 2.9 83
2017-12-31 17:00:00 12.1 19 Oeste 41 Oeste 1.6 978.6 0.9 85
2017-12-31 16:00:00 11.8 19 Oeste 46 Oeste 1 978.3 -0.2 91
2017-12-31 15:00:00 12.8 6 Norte 51 Oeste 0 977.4 -2 81
2017-12-31 14:00:00 13.3 12 Oeste 41 Sur 0 977.7 -1.9 73
2017-12-31 13:00:00 12 14 Sur 44 Sur 0 978.5 -0.7 79
2017-12-31 12:00:00 11.1 12 Sudeste 33 Sur 0 979.4 0.5 85
2017-12-31 11:00:00 10.2 16 Sur 30 Sur 0 979.6 0.8 88
2017-12-31 10:00:00 10.7 19 Sur 26 Sur 0 979.2 0.4 83
2017-12-31 09:00:00 10.5 14 Sur 24 Sur 0 978.9 0.1 83
2017-12-31 08:00:00 10.4 15 Sur 23 Sudoeste 0 978.8 0.4 84
2017-12-31 07:00:00 10.8 14 Sudoeste 25 Sur 0 978.8 -0.6 82
2017-12-31 06:00:00 10.7 13 Sudoeste 20 Sur 0 978.8 -1 84
2017-12-31 05:00:00 10.3 17 Sur 21 Sur 0 978.4 -2.1 85
2017-12-31 04:00:00 11.2 7 Sur 11 Sudoeste 0 979.4 -1.2 82
2017-12-31 03:00:00 11.8 10 Sudoeste 13 Sudoeste 0 979.8 -1 80
2017-12-31 02:00:00 11.6 7 Sudoeste 11 Sudoeste 0 980.5 -0.6 82
2017-12-31 01:00:00 10.2 12 Sudoeste 14 Sudoeste 0 980.6 -0.7 85